createdAt,value
2023-02-11T00:04:28.660Z,-6.00
2023-02-11T00:08:52.877Z,-5.84
2023-02-11T00:13:16.903Z,-5.52
2023-02-11T00:17:41.401Z,-5.52
2023-02-11T00:22:08.047Z,-5.76
2023-02-11T00:27:04.446Z,-5.88
2023-02-11T00:31:09.400Z,-5.97
2023-02-11T00:35:35.691Z,-6.08
2023-02-11T00:40:01.700Z,-6.17
2023-02-11T00:44:24.326Z,-6.17
2023-02-11T00:48:48.342Z,-6.08
2023-02-11T00:53:19.665Z,-5.99
2023-02-11T00:57:44.149Z,-6.01
2023-02-11T01:02:08.159Z,-6.04
2023-02-11T01:06:32.145Z,-6.01
2023-02-11T01:10:56.195Z,-6.03
2023-02-11T01:15:20.232Z,-6.12
2023-02-11T01:19:43.294Z,-6.22
2023-02-11T01:24:25.967Z,-6.19
2023-02-11T01:28:55.627Z,-6.14
2023-02-11T01:33:19.850Z,-6.20
2023-02-11T01:37:44.364Z,-6.20
2023-02-11T01:42:08.334Z,-6.22
2023-02-11T01:46:42.128Z,-6.21
2023-02-11T01:51:29.919Z,-6.12
2023-02-11T01:55:52.565Z,-6.11
2023-02-11T02:00:16.485Z,-6.12
2023-02-11T02:04:40.571Z,-6.29
2023-02-11T02:09:34.278Z,-6.49
2023-02-11T02:13:58.860Z,-6.45
2023-02-11T02:18:43.153Z,-6.37
2023-02-11T02:23:26.388Z,-6.47
2023-02-11T02:27:51.779Z,-6.59
2023-02-11T02:32:47.862Z,-6.59
2023-02-11T02:37:53.630Z,-6.50
2023-02-11T02:42:17.779Z,-6.38
2023-02-11T02:46:50.806Z,-6.41
2023-02-11T02:51:23.640Z,-6.56
2023-02-11T02:56:26.154Z,-6.64
2023-02-11T03:00:53.114Z,-6.74
2023-02-11T03:05:29.314Z,-6.81
2023-02-11T03:09:53.607Z,-6.90
2023-02-11T03:14:17.599Z,-6.92
2023-02-11T03:18:41.514Z,-6.93
2023-02-11T03:23:08.258Z,-6.94
2023-02-11T03:27:35.311Z,-6.95
2023-02-11T03:32:02.574Z,-6.93
2023-02-11T03:36:52.581Z,-6.89
2023-02-11T03:41:17.383Z,-6.87
2023-02-11T03:46:01.367Z,-6.91
2023-02-11T03:50:29.398Z,-6.83
2023-02-11T03:54:53.869Z,-6.74
2023-02-11T03:59:33.931Z,-6.77
2023-02-11T04:03:58.395Z,-6.95
2023-02-11T04:08:31.043Z,-7.06
2023-02-11T04:12:59.444Z,-7.03
2023-02-11T04:17:43.432Z,-6.96
2023-02-11T04:22:07.518Z,-6.90
2023-02-11T04:26:31.875Z,-6.84
2023-02-11T04:30:56.665Z,-6.87
2023-02-11T04:35:24.938Z,-6.92
2023-02-11T04:39:49.312Z,-6.92
2023-02-11T04:44:17.137Z,-6.95
2023-02-11T04:48:43.932Z,-6.98
2023-02-11T04:53:07.923Z,-7.06
2023-02-11T04:57:31.927Z,-7.11
2023-02-11T05:01:55.967Z,-7.11
2023-02-11T05:06:19.630Z,-7.27
2023-02-11T05:10:43.631Z,-7.41
2023-02-11T05:15:07.685Z,-7.40
2023-02-11T05:19:40.426Z,-7.32
2023-02-11T05:24:04.770Z,-7.35
2023-02-11T05:28:28.808Z,-7.32
2023-02-11T05:32:55.185Z,-7.24
2023-02-11T05:37:19.545Z,-7.26
2023-02-11T05:41:43.648Z,-7.17
2023-02-11T05:46:07.689Z,-7.15
2023-02-11T05:50:31.711Z,-7.22
2023-02-11T05:54:55.659Z,-7.14
2023-02-11T05:59:19.595Z,-7.14
2023-02-11T06:03:43.308Z,-7.12
2023-02-11T06:08:09.457Z,-7.13
2023-02-11T06:12:49.016Z,-7.03
2023-02-11T06:17:15.643Z,-6.88
2023-02-11T06:21:43.973Z,-6.73
2023-02-11T06:26:10.835Z,-6.59
2023-02-11T06:30:34.786Z,-6.54
2023-02-11T06:34:58.689Z,-6.45
2023-02-11T06:39:43.527Z,-6.30
2023-02-11T06:44:15.634Z,-6.21
2023-02-11T06:48:39.503Z,-6.16
2023-02-11T06:53:24.701Z,-6.07
2023-02-11T06:57:52.439Z,-5.99
2023-02-11T07:02:38.496Z,-5.91
2023-02-11T07:07:04.809Z,-5.87
2023-02-11T07:11:29.490Z,-5.77
2023-02-11T07:16:22.547Z,-5.59
2023-02-11T07:21:26.353Z,-5.45
2023-02-11T07:26:11.396Z,-5.38
2023-02-11T07:30:56.507Z,-5.30
2023-02-11T07:35:22.913Z,-5.29
2023-02-11T07:39:46.963Z,-5.29
2023-02-11T07:44:09.333Z,-5.18
2023-02-11T07:48:33.377Z,-5.06
2023-02-11T07:53:22.751Z,-4.95
2023-02-11T07:58:07.238Z,-4.91
2023-02-11T08:03:04.008Z,-4.95
2023-02-11T08:07:36.108Z,-4.89
2023-02-11T08:12:28.666Z,-4.78
2023-02-11T08:16:59.808Z,-4.70
2023-02-11T08:21:23.813Z,-4.61
2023-02-11T08:26:07.972Z,-4.48
2023-02-11T08:30:54.187Z,-4.26
2023-02-11T08:35:40.321Z,-3.99
2023-02-11T08:40:44.303Z,-3.79
2023-02-11T08:45:28.225Z,-3.67
2023-02-11T08:50:16.642Z,-3.52
2023-02-11T08:55:20.584Z,-3.26
2023-02-11T09:00:24.125Z,-3.02
2023-02-11T09:05:28.946Z,-2.93
2023-02-11T09:10:32.970Z,-2.90
2023-02-11T09:15:36.852Z,-2.75
2023-02-11T09:20:41.263Z,-2.58
2023-02-11T09:25:45.118Z,-2.09
2023-02-11T09:30:49.388Z,-1.66
2023-02-11T09:35:53.086Z,-1.25
2023-02-11T09:40:57.068Z,-1.23
2023-02-11T09:46:07.998Z,-1.12
2023-02-11T09:50:53.921Z,-1.09
2023-02-11T09:55:59.011Z,-1.18
2023-02-11T10:01:05.931Z,-1.00
2023-02-11T10:06:07.961Z,-0.58
2023-02-11T10:10:58.214Z,-0.13
2023-02-11T10:16:05.009Z,0.23
2023-02-11T10:21:11.471Z,0.50
2023-02-11T10:25:56.469Z,0.80
2023-02-11T10:31:03.074Z,1.26
2023-02-11T10:35:54.484Z,1.55
2023-02-11T10:40:54.459Z,1.85
2023-02-11T10:45:18.422Z,2.08
2023-02-11T10:50:05.157Z,2.23
2023-02-11T10:54:46.134Z,2.03
2023-02-11T10:59:13.155Z,2.04
2023-02-11T11:03:16.719Z,2.13
2023-02-11T11:07:39.054Z,2.35
2023-02-11T11:12:03.018Z,2.54
2023-02-11T11:16:27.296Z,2.78
2023-02-11T11:21:25.044Z,3.03
2023-02-11T11:26:00.864Z,3.26
2023-02-11T11:31:05.679Z,3.31
2023-02-11T11:36:08.940Z,3.24
2023-02-11T11:41:17.814Z,3.58
2023-02-11T11:46:16.266Z,3.73
2023-02-11T11:51:26.484Z,3.44
2023-02-11T11:56:33.878Z,3.30
2023-02-11T12:01:40.606Z,3.28
2023-02-11T12:06:53.093Z,3.28
2023-02-11T12:11:58.231Z,3.25
2023-02-11T12:17:05.614Z,3.21
2023-02-11T12:22:24.918Z,3.24
2023-02-11T12:27:27.085Z,3.47
2023-02-11T12:32:00.401Z,3.57
2023-02-11T12:37:03.476Z,3.60
2023-02-11T12:41:54.282Z,3.59
2023-02-11T12:46:52.555Z,3.63
2023-02-11T12:51:50.258Z,3.67
2023-02-11T12:56:37.064Z,3.71
2023-02-11T13:01:49.719Z,3.72
2023-02-11T13:06:53.661Z,3.76
2023-02-11T13:11:40.530Z,3.78
2023-02-11T13:16:46.891Z,3.87
2023-02-11T13:21:55.708Z,3.98
2023-02-11T13:26:59.475Z,4.12
2023-02-11T13:32:05.421Z,4.20
2023-02-11T13:37:10.530Z,4.26
2023-02-11T13:42:19.286Z,4.28
2023-02-11T13:47:27.450Z,4.24
2023-02-11T13:52:37.209Z,4.19
2023-02-11T13:57:39.815Z,4.18
2023-02-11T14:02:29.072Z,4.18
2023-02-11T14:07:46.739Z,4.12
2023-02-11T14:12:57.400Z,4.14
2023-02-11T14:18:02.372Z,4.09
2023-02-11T14:23:21.891Z,4.05
2023-02-11T14:28:31.620Z,4.02
2023-02-11T14:33:20.428Z,4.04
2023-02-11T14:38:44.686Z,4.06
2023-02-11T14:43:15.198Z,4.02
2023-02-11T14:47:42.581Z,3.93
2023-02-11T14:52:06.579Z,3.78
2023-02-11T14:57:22.705Z,3.68
2023-02-11T15:02:09.669Z,3.60
2023-02-11T15:07:08.428Z,3.46
2023-02-11T15:11:36.006Z,3.38
2023-02-11T15:16:39.544Z,3.27
2023-02-11T15:21:23.464Z,3.21
2023-02-11T15:25:47.534Z,3.11
2023-02-11T15:30:17.937Z,2.98
2023-02-11T15:34:42.046Z,2.87
2023-02-11T15:39:05.963Z,2.75
2023-02-11T15:43:44.226Z,2.70
2023-02-11T15:48:30.952Z,2.59
2023-02-11T15:52:55.060Z,2.59
2023-02-11T15:57:21.897Z,2.50
2023-02-11T16:01:45.851Z,2.38
2023-02-11T16:06:12.479Z,2.38
2023-02-11T16:11:01.163Z,2.36
2023-02-11T16:15:46.628Z,2.26
2023-02-11T16:20:13.212Z,2.30
2023-02-11T16:24:35.418Z,2.29
2023-02-11T16:28:59.399Z,2.33
2023-02-11T16:33:25.235Z,2.38
2023-02-11T16:37:49.277Z,2.37
2023-02-11T16:42:15.442Z,2.31
2023-02-11T16:46:39.833Z,2.25
2023-02-11T16:51:26.379Z,2.25
2023-02-11T16:56:13.072Z,2.26
2023-02-11T17:00:40.953Z,2.24
2023-02-11T17:05:07.787Z,2.19
2023-02-11T17:09:31.882Z,2.17
2023-02-11T17:13:59.697Z,2.11
2023-02-11T17:18:23.606Z,2.09
2023-02-11T17:22:47.681Z,2.14
2023-02-11T17:27:12.702Z,2.19
2023-02-11T17:31:37.040Z,2.20
2023-02-11T17:36:21.304Z,2.20
2023-02-11T17:40:49.516Z,2.20
2023-02-11T17:45:33.859Z,2.15
2023-02-11T17:50:18.893Z,2.12
2023-02-11T17:55:02.928Z,2.15
2023-02-11T17:59:27.445Z,2.11
2023-02-11T18:03:53.656Z,2.07
2023-02-11T18:08:17.681Z,2.00
2023-02-11T18:12:43.036Z,1.99
2023-02-11T18:17:27.069Z,1.96
2023-02-11T18:22:13.870Z,1.97
2023-02-11T18:26:38.253Z,1.95
2023-02-11T18:31:23.243Z,1.93
2023-02-11T18:36:09.475Z,1.87
2023-02-11T18:40:34.195Z,1.81
2023-02-11T18:44:58.505Z,1.75
2023-02-11T18:49:42.519Z,1.72
2023-02-11T18:54:46.682Z,1.66
2023-02-11T18:59:50.524Z,1.61
2023-02-11T19:04:54.485Z,1.50
2023-02-11T19:09:18.943Z,1.39
2023-02-11T19:14:23.235Z,1.32
2023-02-11T19:19:07.787Z,1.24
2023-02-11T19:24:11.781Z,1.11
2023-02-11T19:29:11.976Z,0.96
2023-02-11T19:34:15.846Z,0.91
2023-02-11T19:38:40.808Z,0.84
2023-02-11T19:43:45.812Z,0.81
2023-02-11T19:48:26.553Z,0.70
2023-02-11T19:53:31.596Z,0.60
2023-02-11T19:58:28.221Z,0.57
2023-02-11T20:03:33.080Z,0.60
2023-02-11T20:08:33.980Z,0.59
2023-02-11T20:13:35.256Z,0.47
2023-02-11T20:18:39.775Z,0.37
2023-02-11T20:23:23.785Z,0.34
2023-02-11T20:27:47.748Z,0.32
2023-02-11T20:32:19.790Z,0.19
2023-02-11T20:37:09.287Z,0.07
2023-02-11T20:41:53.790Z,-0.02
2023-02-11T20:46:42.353Z,-0.08
2023-02-11T20:51:37.790Z,-0.15
2023-02-11T20:56:05.789Z,-0.26
2023-02-11T21:00:30.124Z,-0.43
2023-02-11T21:05:15.149Z,-0.51
2023-02-11T21:09:59.041Z,-0.51
2023-02-11T21:14:23.502Z,-0.56
2023-02-11T21:19:27.702Z,-0.69
2023-02-11T21:24:11.647Z,-0.86
2023-02-11T21:28:36.069Z,-0.99
2023-02-11T21:33:00.876Z,-1.00
2023-02-11T21:37:44.751Z,-0.93
2023-02-11T21:42:13.192Z,-0.92
2023-02-11T21:46:46.649Z,-0.98
2023-02-11T21:51:45.509Z,-1.06
2023-02-11T21:56:27.834Z,-1.06
2023-02-11T22:00:43.089Z,-1.12
2023-02-11T22:05:07.198Z,-1.09
2023-02-11T22:09:23.837Z,-1.08
2023-02-11T22:13:47.795Z,-1.09
2023-02-11T22:18:32.704Z,-1.03
2023-02-11T22:23:16.816Z,-0.92
2023-02-11T22:27:58.133Z,-0.70
2023-02-11T22:32:25.224Z,-0.67
2023-02-11T22:37:02.761Z,-0.70
2023-02-11T22:41:19.832Z,-0.74
2023-02-11T22:45:48.138Z,-0.79
2023-02-11T22:50:13.575Z,-0.76
2023-02-11T22:54:57.310Z,-0.81
2023-02-11T22:59:23.471Z,-0.75
2023-02-11T23:03:47.438Z,-0.64
2023-02-11T23:08:31.616Z,-0.61
2023-02-11T23:13:36.334Z,-0.63
2023-02-11T23:18:36.201Z,-0.62
2023-02-11T23:23:00.227Z,-0.51
2023-02-11T23:27:44.296Z,-0.42
2023-02-11T23:32:15.521Z,-0.31
2023-02-11T23:37:09.203Z,-0.22
2023-02-11T23:41:41.407Z,-0.20
2023-02-11T23:46:05.543Z,-0.19
2023-02-11T23:50:50.224Z,-0.24
2023-02-11T23:55:54.091Z,-0.19
